Time;durP1;ratioP1;P1;durP2;ratioP2;P2;SDS_P1;SDS_P2;PMS_P1;PMS_P2;Temp;Humidity;BMP_temperature;BMP_pressure;BME280_temperature;BME280_humidity;BME280_pressure;Samples;Min_cycle;Max_cycle;Signal;HPM_P1;HPM_P2
2023/01/24 00:01:03;;;;;;;25.63;18.88;;;;;;;1.50;98.57;103765.13;5030667;28;19919;-58
2023/01/24 00:03:29;;;;;;;26.27;19.67;;;;;;;1.50;98.51;103761.63;5031858;28;20033;-58
2023/01/24 00:05:54;;;;;;;23.92;19.23;;;;;;;1.50;98.38;103762.50;5024796;28;20076;-57
2023/01/24 00:08:22;;;;;;;23.65;18.77;;;;;;;1.49;98.35;103760.75;5029329;28;20025;-59
2023/01/24 00:10:49;;;;;;;22.80;18.88;;;;;;;1.48;98.46;103762.50;5030285;28;20036;-58
2023/01/24 00:13:15;;;;;;;23.48;18.77;;;;;;;1.50;98.67;103766.84;5034486;28;20057;-58
2023/01/24 00:15:41;;;;;;;26.58;18.70;;;;;;;1.48;98.92;103761.59;5030617;28;20491;-58
2023/01/24 00:18:06;;;;;;;24.05;18.67;;;;;;;1.48;98.91;103764.22;5029616;28;20025;-57
2023/01/24 00:20:32;;;;;;;26.08;19.90;;;;;;;1.50;98.86;103761.63;5024707;28;20033;-58
2023/01/24 00:22:57;;;;;;;23.67;18.60;;;;;;;1.49;98.93;103768.59;5029647;28;20026;-56
2023/01/24 00:25:22;;;;;;;22.80;18.20;;;;;;;1.49;98.75;103763.38;5031322;28;20467;-57
2023/01/24 00:27:48;;;;;;;23.67;18.95;;;;;;;1.49;99.38;103760.75;5031407;28;20465;-58
2023/01/24 00:30:14;;;;;;;24.33;19.20;;;;;;;1.48;99.17;103758.97;5024047;28;20038;-58
2023/01/24 00:32:39;;;;;;;23.05;18.58;;;;;;;1.47;99.09;103757.25;5029603;28;20040;-57
2023/01/24 00:35:05;;;;;;;21.80;17.65;;;;;;;1.48;98.14;103759.88;5031317;28;20053;-58
2023/01/24 00:37:30;;;;;;;22.35;17.55;;;;;;;1.47;98.56;103747.63;5019427;28;20090;-58
2023/01/24 00:39:56;;;;;;;24.10;18.80;;;;;;;1.48;99.01;103746.78;5034936;28;20032;-59
2023/01/24 00:42:21;;;;;;;23.60;18.30;;;;;;;1.48;99.01;103745.88;5029810;28;20523;-56
2023/01/24 00:44:46;;;;;;;22.77;18.15;;;;;;;1.46;99.06;103738.00;5035235;28;20037;-59
2023/01/24 00:47:11;;;;;;;26.52;18.55;;;;;;;1.48;98.20;103735.41;5034757;28;20104;-59
2023/01/24 00:49:37;;;;;;;23.05;17.92;;;;;;;1.47;97.89;103737.16;5030015;28;20037;-59
2023/01/24 00:52:02;;;;;;;24.25;18.10;;;;;;;1.49;97.95;103739.78;5032261;28;20383;-58
2023/01/24 00:54:27;;;;;;;24.13;19.08;;;;;;;1.50;97.45;103738.03;5035050;28;20072;-59
2023/01/24 00:56:53;;;;;;;24.42;18.92;;;;;;;1.48;97.65;103738.91;5027330;28;20025;-58
2023/01/24 00:59:18;;;;;;;24.60;17.50;;;;;;;1.48;98.40;103740.63;5034756;28;20044;-59
2023/01/24 01:01:43;;;;;;;26.75;18.30;;;;;;;1.48;98.49;103745.88;5034724;28;20024;-59
2023/01/24 01:04:09;;;;;;;23.73;18.90;;;;;;;1.47;98.49;103745.00;5027008;28;20071;-59
2023/01/24 01:06:35;;;;;;;24.98;19.08;;;;;;;1.47;98.69;103741.53;5031477;28;20533;-58
2023/01/24 01:09:00;;;;;;;23.90;18.67;;;;;;;1.47;98.32;103744.16;5031709;28;20041;-58
2023/01/24 01:11:25;;;;;;;22.70;17.88;;;;;;;1.46;98.28;103742.38;5030647;28;20026;-58
2023/01/24 01:13:54;;;;;;;24.05;18.30;;;;;;;1.45;97.81;103736.28;5034377;28;20076;-58
2023/01/24 01:16:20;;;;;;;23.02;17.85;;;;;;;1.46;98.01;103724.03;5029867;28;20034;-59
2023/01/24 01:18:46;;;;;;;23.27;17.88;;;;;;;1.44;98.21;103731.03;5034375;28;20372;-60
2023/01/24 01:21:14;;;;;;;21.48;17.08;;;;;;;1.43;97.77;103731.88;5031202;28;20079;-58
2023/01/24 01:23:40;;;;;;;22.10;17.17;;;;;;;1.43;97.90;103730.16;5030677;28;20040;-59
2023/01/24 01:26:08;;;;;;;20.25;15.77;;;;;;;1.42;97.40;103730.13;5036992;28;20454;-59
2023/01/24 01:28:34;;;;;;;21.55;16.15;;;;;;;1.43;98.24;103729.25;5029970;28;20022;-59
2023/01/24 01:30:59;;;;;;;20.23;15.60;;;;;;;1.42;97.92;103731.00;5033929;28;20025;-59
2023/01/24 01:33:25;;;;;;;20.85;15.40;;;;;;;1.42;98.20;103730.13;5029350;28;20021;-58
2023/01/24 01:35:51;;;;;;;21.08;16.63;;;;;;;1.42;97.97;103738.00;5031586;28;20120;-58
2023/01/24 01:38:17;;;;;;;21.80;15.98;;;;;;;1.41;98.16;103738.84;5034126;28;20028;-58
2023/01/24 01:40:43;;;;;;;21.17;16.63;;;;;;;1.42;97.52;103735.38;5023231;28;20030;-58
2023/01/24 01:43:17;;;;;;;21.42;15.75;;;;;;;1.43;97.78;103730.16;5033703;28;20046;-58
2023/01/24 01:45:47;;;;;;;20.92;16.65;;;;;;;1.43;97.91;103734.50;5023700;28;20030;-58
2023/01/24 01:48:18;;;;;;;21.23;16.13;;;;;;;1.42;97.66;103733.63;5034004;28;20053;-59
2023/01/24 01:50:50;;;;;;;22.10;16.50;;;;;;;1.42;97.96;103736.25;5032241;28;20530;-59
2023/01/24 01:53:17;;;;;;;20.02;15.38;;;;;;;1.41;97.76;103731.84;5029692;28;20046;-58
2023/01/24 01:55:48;;;;;;;23.23;17.42;;;;;;;1.41;98.22;103728.38;5032279;28;20021;-57
2023/01/24 01:58:15;;;;;;;21.50;16.65;;;;;;;1.41;98.22;103729.25;5033606;28;20026;-57
2023/01/24 02:00:44;;;;;;;22.23;16.27;;;;;;;1.41;98.24;103725.75;5014828;28;20052;-59
2023/01/24 02:05:58;;;;;;;22.20;16.23;;;;;;;1.41;98.33;103723.13;5033601;28;20052;-59
2023/01/24 02:08:24;;;;;;;23.35;16.95;;;;;;;1.41;98.31;103723.13;5033031;28;20459;-57
2023/01/24 02:13:38;;;;;;;22.00;16.42;;;;;;;1.39;98.29;103724.88;5033389;28;20116;-58
2023/01/24 02:16:04;;;;;;;21.35;16.95;;;;;;;1.40;98.79;103718.75;5033068;28;20021;-58
2023/01/24 02:18:31;;;;;;;22.98;16.88;;;;;;;1.39;98.34;103725.75;5029313;28;20043;-59
2023/01/24 02:20:57;;;;;;;22.75;17.40;;;;;;;1.41;99.05;103723.13;5032753;28;20506;-58
2023/01/24 02:24:05;;;;;;;23.25;17.95;;;;;;;1.42;99.13;103724.91;5033102;28;20121;-58
2023/01/24 02:26:30;;;;;;;24.40;17.92;;;;;;;1.40;99.24;103718.75;5027854;28;20036;-58
2023/01/24 02:29:00;;;;;;;24.67;18.27;;;;;;;1.41;99.03;103715.28;5026984;28;20029;-59
2023/01/24 02:31:25;;;;;;;;;;;;;;;1.45;99.33;103719.69;5033104;28;20372;-57
2023/01/24 02:33:51;;;;;;;24.35;17.55;;;;;;;1.40;98.76;103718.75;5030695;28;19939;-59
2023/01/24 02:36:31;;;;;;;21.65;16.48;;;;;;;1.39;98.68;103723.13;5032968;28;20391;-59
2023/01/24 02:39:12;;;;;;;23.90;18.05;;;;;;;1.39;98.66;103720.50;5031516;28;20044;-58
2023/01/24 02:41:48;;;;;;;23.67;17.95;;;;;;;1.38;99.26;103717.88;5025632;28;20034;-57
2023/01/24 02:44:19;;;;;;;25.92;18.60;;;;;;;1.36;98.89;103712.63;5032974;28;20061;-58
2023/01/24 02:46:45;;;;;;;25.23;19.13;;;;;;;1.36;99.01;103717.84;5027216;28;20503;-59
2023/01/24 02:49:11;;;;;;;24.30;18.42;;;;;;;1.38;98.64;103725.72;5042903;28;20112;-58
2023/01/24 02:54:21;;;;;;;27.23;18.75;;;;;;;1.37;98.95;103724.84;5032353;28;20142;-59
2023/01/24 02:59:30;;;;;;;24.05;18.73;;;;;;;1.37;99.36;103729.22;5031086;28;20130;-59
2023/01/24 03:01:55;;;;;;;25.88;19.50;;;;;;;1.37;99.07;103726.59;5032137;28;20484;-58
2023/01/24 03:04:21;;;;;;;25.77;19.40;;;;;;;1.36;99.77;103728.31;5027771;28;20061;-58
2023/01/24 03:06:48;;;;;;;24.48;18.30;;;;;;;1.34;99.56;103714.34;5028412;28;20025;-59
2023/01/24 03:09:33;;;;;;;27.65;19.67;;;;;;;1.34;99.97;103724.81;5028303;28;20087;-59
2023/01/24 03:36:35;;;;;;;28.20;19.90;;;;;;;1.31;99.23;103716.94;5025107;28;20044;-58
2023/01/24 03:41:44;;;;;;;24.58;19.17;;;;;;;1.30;99.76;103715.19;5023653;28;20040;-60
2023/01/24 03:44:10;;;;;;;25.05;18.30;;;;;;;1.29;99.59;103714.31;5031453;28;20128;-58
2023/01/24 03:46:39;;;;;;;23.95;18.60;;;;;;;1.29;99.69;103705.59;5029764;28;20029;-58
2023/01/24 03:49:05;;;;;;;24.38;18.65;;;;;;;1.27;100.00;103710.81;5030224;28;20041;-58
2023/01/24 03:54:14;;;;;;;27.10;20.02;;;;;;;1.25;99.90;103706.41;5021672;28;20044;-59
2023/01/24 03:56:39;;;;;;;24.42;19.17;;;;;;;1.24;99.70;103709.91;5031479;28;20029;-58
2023/01/24 03:59:05;;;;;;;25.15;18.90;;;;;;;1.23;99.70;103709.03;5029110;28;20100;-58
2023/01/24 04:01:30;;;;;;;26.23;19.17;;;;;;;1.23;99.60;103710.75;5026353;28;20029;-56
2023/01/24 04:03:55;;;;;;;27.05;19.90;;;;;;;1.22;99.20;103712.50;5031631;28;20025;-58
2023/01/24 04:06:21;;;;;;;25.48;18.58;;;;;;;1.20;99.72;103706.38;5031287;28;20037;-58
2023/01/24 04:08:46;;;;;;;24.85;19.75;;;;;;;1.19;99.73;103711.59;5021214;28;20025;-58
2023/01/24 04:11:11;;;;;;;25.63;19.15;;;;;;;1.17;100.00;103708.09;5031586;28;20031;-57
2023/01/24 04:13:36;;;;;;;26.20;19.73;;;;;;;1.18;100.00;103712.47;5024064;28;20033;-57
2023/01/24 04:16:02;;;;;;;25.52;18.52;;;;;;;1.18;99.77;103713.31;5035423;28;20117;-59
2023/01/24 04:18:27;;;;;;;27.35;19.23;;;;;;;1.17;99.84;103713.34;5031568;28;20037;-58
2023/01/24 04:20:52;;;;;;;24.02;18.98;;;;;;;1.17;99.83;103718.56;5031390;28;20073;-57
2023/01/24 04:23:18;;;;;;;27.10;19.13;;;;;;;1.16;99.99;103714.19;5035581;28;20033;-57
2023/01/24 04:25:49;;;;;;;27.55;18.65;;;;;;;1.15;100.00;103715.03;5035307;28;20029;-58
2023/01/24 04:28:14;;;;;;;25.85;18.40;;;;;;;1.15;100.00;103715.03;5035430;28;20033;-58
2023/01/24 04:30:39;;;;;;;25.40;18.13;;;;;;;1.15;100.00;103715.03;5033421;28;20021;-58
2023/01/24 04:33:04;;;;;;;28.40;19.58;;;;;;;1.13;100.00;103709.78;5033763;28;20029;-58
2023/01/24 04:35:30;;;;;;;25.70;17.98;;;;;;;1.13;100.00;103716.78;5035523;28;20132;-58
2023/01/24 04:38:00;;;;;;;24.73;18.75;;;;;;;1.14;100.00;103715.94;5035283;28;20021;-56
2023/01/24 04:40:25;;;;;;;25.30;19.05;;;;;;;1.13;100.00;103717.66;5034362;28;20021;-56
2023/01/24 04:42:51;;;;;;;24.38;19.13;;;;;;;1.12;99.93;103713.28;5034903;28;20045;-58
2023/01/24 04:45:16;;;;;;;24.23;18.00;;;;;;;1.11;100.00;103719.38;5035064;28;20022;-57
2023/01/24 04:47:41;;;;;;;24.70;18.67;;;;;;;1.11;99.75;103714.13;5027246;28;20510;-58
2023/01/24 04:50:07;;;;;;;24.63;18.45;;;;;;;1.09;99.94;103719.38;5034775;28;20070;-57
2023/01/24 04:52:33;;;;;;;22.25;17.27;;;;;;;1.10;99.97;103721.13;5031659;28;20073;-59
2023/01/24 04:54:58;;;;;;;25.02;18.48;;;;;;;1.09;100.00;103721.97;5034720;28;20064;-57
2023/01/24 04:57:23;;;;;;;23.33;18.67;;;;;;;1.09;100.00;103723.72;5034857;28;20036;-58
2023/01/24 04:59:49;;;;;;;24.50;18.85;;;;;;;1.08;100.00;103724.56;5030778;28;20380;-58
2023/01/24 05:02:14;;;;;;;26.63;19.15;;;;;;;1.08;100.00;103719.34;5037567;28;20075;-58
2023/01/24 05:04:40;;;;;;;23.67;18.50;;;;;;;1.08;100.00;103721.97;5034628;28;20025;-58
2023/01/24 05:07:05;;;;;;;27.85;19.48;;;;;;;1.08;99.76;103728.09;5028151;28;20164;-58
2023/01/24 05:09:30;;;;;;;24.85;19.67;;;;;;;1.07;100.00;103721.09;5034337;28;20025;-56
2023/01/24 05:11:55;;;;;;;29.05;18.92;;;;;;;1.08;99.92;103725.47;5031297;28;20051;-58
2023/01/24 05:14:21;;;;;;;25.17;19.00;;;;;;;1.07;100.00;103723.72;5034622;28;20041;-58
2023/01/24 05:16:46;;;;;;;24.65;18.48;;;;;;;1.06;100.00;103721.94;5034495;28;20021;-58
2023/01/24 05:19:11;;;;;;;26.20;19.52;;;;;;;1.06;100.00;103727.19;5034028;28;20033;-58
2023/01/24 05:21:36;;;;;;;25.20;19.90;;;;;;;1.05;100.00;103735.91;5032507;28;20063;-59
2023/01/24 05:24:03;;;;;;;26.40;19.67;;;;;;;1.04;100.00;103734.16;5033753;28;20103;-59
2023/01/24 05:26:28;;;;;;;25.88;18.95;;;;;;;1.03;100.00;103729.78;5033493;28;20033;-57
2023/01/24 05:28:54;;;;;;;25.20;19.08;;;;;;;1.03;100.00;103736.75;5025219;28;20037;-58
2023/01/24 05:31:20;;;;;;;23.65;18.25;;;;;;;1.03;100.00;103731.50;5033896;28;20132;-59
2023/01/24 05:33:46;;;;;;;25.10;19.83;;;;;;;1.02;100.00;103732.41;5034348;28;20511;-58
2023/01/24 05:36:14;;;;;;;26.40;19.10;;;;;;;1.01;100.00;103730.63;5032930;28;20112;-58
2023/01/24 05:38:40;;;;;;;28.15;18.92;;;;;;;1.03;100.00;103736.75;5033780;28;20083;-59
2023/01/24 05:41:08;;;;;;;25.10;18.95;;;;;;;1.02;100.00;103735.00;5030878;28;20045;-58
2023/01/24 05:43:34;;;;;;;23.83;18.52;;;;;;;1.01;100.00;103733.25;5033632;28;20484;-57
2023/01/24 05:46:02;;;;;;;23.92;18.05;;;;;;;1.00;100.00;103734.09;5022474;28;20087;-59
2023/01/24 05:48:28;;;;;;;23.83;18.65;;;;;;;1.00;100.00;103745.47;5033522;28;20448;-59
2023/01/24 05:51:07;;;;;;;28.83;19.25;;;;;;;1.00;100.00;103741.94;5034117;28;20108;-58
2023/01/24 05:53:35;;;;;;;25.65;19.15;;;;;;;1.00;100.00;103745.47;5031973;28;20083;-59
2023/01/24 05:56:04;;;;;;;25.02;18.67;;;;;;;0.98;100.00;103749.78;5034120;28;20026;-59
2023/01/24 05:58:32;;;;;;;24.77;18.45;;;;;;;0.99;100.00;103755.91;5034045;28;20025;-59
2023/01/24 06:00:58;;;;;;;24.02;18.33;;;;;;;0.99;100.00;103759.41;5015561;28;20108;-58
2023/01/24 06:03:23;;;;;;;25.45;18.58;;;;;;;0.99;100.00;103754.16;5030620;28;20511;-59
2023/01/24 06:05:50;;;;;;;24.15;18.10;;;;;;;0.99;100.00;103764.63;5026887;28;20041;-59
2023/01/24 06:08:16;;;;;;;24.90;19.08;;;;;;;1.00;100.00;103761.16;5030960;28;20383;-57
2023/01/24 06:10:42;;;;;;;23.38;17.35;;;;;;;1.00;100.00;103762.88;5033468;28;20021;-59
2023/01/24 06:13:08;;;;;;;21.83;17.00;;;;;;;0.98;100.00;103762.88;5033265;28;20083;-58
2023/01/24 06:15:34;;;;;;;22.77;17.67;;;;;;;0.96;100.00;103761.97;5031543;28;20430;-57
2023/01/24 06:17:59;;;;;;;22.50;17.35;;;;;;;0.96;100.00;103767.22;5014965;28;20053;-59
2023/01/24 06:20:25;;;;;;;24.17;18.15;;;;;;;0.96;100.00;103766.34;5033371;28;20056;-58
2023/01/24 06:22:56;;;;;;;25.23;17.92;;;;;;;0.90;100.00;103757.56;5024818;28;20045;-57
2023/01/24 06:25:24;;;;;;;21.67;16.50;;;;;;;0.94;100.00;103757.59;5032811;28;20116;-59
2023/01/24 06:27:50;;;;;;;23.42;17.75;;;;;;;0.92;100.00;103763.69;5027885;28;20035;-58
2023/01/24 06:30:17;;;;;;;23.33;17.92;;;;;;;0.92;100.00;103768.94;5032918;28;20018;-56
2023/01/24 06:33:06;;;;;;;22.75;17.73;;;;;;;0.93;100.00;103772.41;5025397;28;20033;-59
2023/01/24 06:36:07;;;;;;;;;;;;;;;0.99;100.00;103769.88;5033994;28;20035;-58
2023/01/24 06:38:33;;;;;;;22.88;17.60;;;;;;;0.92;100.00;103786.38;4991224;28;19906;-59
2023/01/24 06:41:01;;;;;;;23.13;17.90;;;;;;;0.91;100.00;103776.75;5018759;28;20087;-58
2023/01/24 06:43:26;;;;;;;21.60;16.30;;;;;;;0.90;100.00;103778.50;5032622;28;20431;-57
2023/01/24 06:45:52;;;;;;;24.58;17.67;;;;;;;0.88;100.00;103780.22;5031612;28;20026;-58
2023/01/24 06:48:18;;;;;;;23.83;17.95;;;;;;;0.89;100.00;103778.47;5032574;28;20043;-58
2023/01/24 06:50:43;;;;;;;25.50;18.85;;;;;;;0.88;100.00;103784.56;5032201;28;20025;-57
2023/01/24 06:53:09;;;;;;;25.92;18.83;;;;;;;0.88;100.00;103781.94;5032627;28;20021;-58
2023/01/24 06:55:35;;;;;;;25.27;18.52;;;;;;;0.86;100.00;103787.16;5030171;28;20109;-56
2023/01/24 06:58:02;;;;;;;24.70;18.85;;;;;;;0.84;100.00;103773.19;5032552;28;20022;-54
2023/01/24 07:00:29;;;;;;;23.65;18.25;;;;;;;0.84;100.00;103780.16;5019723;28;20033;-57
2023/01/24 07:03:07;;;;;;;24.67;19.05;;;;;;;0.83;100.00;103781.88;5035803;28;20434;-58
2023/01/24 07:05:35;;;;;;;24.88;18.77;;;;;;;0.83;100.00;103781.88;5021168;28;20033;-58
2023/01/24 07:08:01;;;;;;;24.80;18.95;;;;;;;0.83;100.00;103783.63;5031887;28;20103;-57
2023/01/24 07:10:26;;;;;;;24.73;18.48;;;;;;;0.83;100.00;103778.41;5021276;28;20029;-58
2023/01/24 07:12:51;;;;;;;23.42;18.55;;;;;;;0.83;100.00;103789.75;5041014;28;20029;-57
2023/01/24 07:15:17;;;;;;;26.42;19.48;;;;;;;0.82;100.00;103795.84;5031865;28;20025;-57
2023/01/24 07:17:43;;;;;;;26.08;19.50;;;;;;;0.84;100.00;103793.25;5028526;28;20025;-58
2023/01/24 07:20:09;;;;;;;26.63;19.90;;;;;;;0.81;100.00;103798.44;5025446;28;20049;-56
2023/01/24 07:22:37;;;;;;;23.80;18.83;;;;;;;0.80;100.00;103808.03;5028080;28;20036;-57
2023/01/24 07:25:04;;;;;;;26.40;19.92;;;;;;;0.79;100.00;103816.75;5027806;28;20108;-57
2023/01/24 07:27:29;;;;;;;25.83;19.00;;;;;;;0.78;100.00;103817.59;5032580;28;20556;-55
2023/01/24 07:29:54;;;;;;;23.92;18.50;;;;;;;0.79;100.00;103818.50;5029108;28;20029;-56
2023/01/24 07:32:20;;;;;;;23.30;17.52;;;;;;;0.77;100.00;103828.03;5032032;28;20021;-56
2023/01/24 07:34:45;;;;;;;23.10;16.88;;;;;;;0.77;100.00;103822.81;5029470;28;20032;-56
2023/01/24 07:37:10;;;;;;;24.63;17.38;;;;;;;0.76;100.00;103826.28;5032049;28;20070;-56
2023/01/24 07:39:35;;;;;;;24.70;18.73;;;;;;;0.72;100.00;103828.88;5023619;28;20053;-57
2023/01/24 07:42:01;;;;;;;24.65;18.45;;;;;;;0.73;100.00;103828.03;5031271;28;20021;-54
2023/01/24 07:44:26;;;;;;;26.45;19.65;;;;;;;0.74;100.00;103834.13;5030213;28;20033;-55
2023/01/24 07:46:52;;;;;;;24.90;18.38;;;;;;;0.73;100.00;103828.03;5029509;28;20049;-56
2023/01/24 07:49:17;;;;;;;24.15;18.50;;;;;;;0.76;100.00;103831.53;5024289;28;20025;-58
2023/01/24 07:51:42;;;;;;;25.00;18.83;;;;;;;0.75;100.00;103830.66;5022043;28;20598;-56
2023/01/24 07:54:08;;;;;;;22.27;17.67;;;;;;;0.73;100.00;103833.25;5029778;28;20112;-56
2023/01/24 07:56:33;;;;;;;25.48;19.02;;;;;;;0.74;100.00;103841.97;5030515;28;20041;-57
2023/01/24 07:58:58;;;;;;;23.98;18.15;;;;;;;0.72;100.00;103841.94;5027741;28;20057;-56
2023/01/24 08:01:25;;;;;;;24.52;18.45;;;;;;;0.71;100.00;103844.53;5029540;28;20637;-57
2023/01/24 08:03:55;;;;;;;23.65;17.42;;;;;;;0.70;100.00;103848.00;5019693;28;20037;-56
2023/01/24 08:06:20;;;;;;;23.63;17.35;;;;;;;0.70;100.00;103850.63;5029832;28;20045;-56
2023/01/24 08:08:45;;;;;;;25.05;18.17;;;;;;;0.68;100.00;103849.72;5015661;28;20037;-56
2023/01/24 08:11:13;;;;;;;25.35;18.70;;;;;;;0.68;100.00;103845.41;5016010;28;20507;-57
2023/01/24 08:13:38;;;;;;;25.45;17.98;;;;;;;0.69;100.00;103847.13;5013856;28;20029;-57
2023/01/24 08:16:04;;;;;;;24.38;18.80;;;;;;;0.67;100.00;103848.00;5020508;28;20369;-58
2023/01/24 08:18:29;;;;;;;26.38;19.00;;;;;;;0.66;100.00;103849.72;5017932;28;20034;-58
2023/01/24 08:20:56;;;;;;;25.08;19.63;;;;;;;0.67;100.00;103851.47;5015047;28;20040;-58
2023/01/24 08:23:21;;;;;;;27.63;19.67;;;;;;;0.67;100.00;103848.00;5020983;28;20147;-58
2023/01/24 08:25:46;;;;;;;28.35;20.73;;;;;;;0.69;100.00;103851.50;5018534;28;20100;-56
2023/01/24 08:28:12;;;;;;;27.58;19.55;;;;;;;0.68;100.00;103857.56;5016736;28;20392;-56
2023/01/24 08:30:37;;;;;;;27.15;19.75;;;;;;;0.69;100.00;103857.59;5017437;28;20053;-54
2023/01/24 08:33:04;;;;;;;27.27;20.10;;;;;;;0.69;100.00;103848.88;5024409;28;20407;-53
2023/01/24 08:35:31;;;;;;;26.25;19.35;;;;;;;0.69;100.00;103848.88;5027531;28;20053;-53
2023/01/24 08:37:56;;;;;;;27.42;20.65;;;;;;;0.70;100.00;103855.84;5022431;28;20034;-56
2023/01/24 08:40:22;;;;;;;25.80;19.25;;;;;;;0.70;100.00;103859.38;5027921;28;20033;-57
2023/01/24 08:42:47;;;;;;;27.45;20.52;;;;;;;0.71;100.00;103865.47;5028733;28;20049;-56
2023/01/24 08:45:12;;;;;;;26.17;19.80;;;;;;;0.72;100.00;103862.00;5024793;28;20564;-55
2023/01/24 08:47:38;;;;;;;26.98;19.02;;;;;;;0.69;100.00;103875.91;5029967;28;20545;-57
2023/01/24 08:50:03;;;;;;;24.88;18.00;;;;;;;0.68;100.00;103876.78;5029580;28;20514;-57
2023/01/24 08:52:28;;;;;;;26.90;18.73;;;;;;;0.67;100.00;103874.16;5026495;28;20033;-56
2023/01/24 08:54:54;;;;;;;26.92;19.05;;;;;;;0.67;100.00;103884.63;5024896;28;20018;-56
2023/01/24 08:57:19;;;;;;;26.02;18.10;;;;;;;0.65;100.00;103881.06;5028844;28;20042;-55
2023/01/24 08:59:44;;;;;;;26.88;18.95;;;;;;;0.66;100.00;103886.31;5028595;28;20031;-57
2023/01/24 09:02:13;;;;;;;25.70;18.60;;;;;;;0.67;100.00;103887.22;5025977;28;20028;-53
2023/01/24 09:04:39;;;;;;;26.17;18.42;;;;;;;0.65;100.00;103884.59;5012854;28;20037;-57
2023/01/24 09:07:04;;;;;;;25.05;19.13;;;;;;;0.67;100.00;103884.63;5025490;28;20038;-56
2023/01/24 09:09:29;;;;;;;24.83;18.02;;;;;;;0.66;100.00;103888.06;5033840;28;20521;-57
2023/01/24 09:11:55;;;;;;;25.83;18.40;;;;;;;0.67;100.00;103889.84;5031657;28;20025;-54
2023/01/24 09:14:20;;;;;;;25.45;18.55;;;;;;;0.67;99.73;103895.06;5033035;28;20036;-54
2023/01/24 09:16:45;;;;;;;27.05;18.70;;;;;;;0.66;99.57;103885.47;5029869;28;20095;-53
2023/01/24 09:19:12;;;;;;;24.33;17.67;;;;;;;0.65;100.00;103884.59;5024941;28;20036;-55
2023/01/24 09:21:37;;;;;;;27.13;18.75;;;;;;;0.65;99.91;103881.97;5032112;28;20021;-55
2023/01/24 09:24:03;;;;;;;24.98;17.77;;;;;;;0.65;100.00;103886.31;5032859;28;20357;-53
2023/01/24 09:26:28;;;;;;;24.42;18.00;;;;;;;0.64;99.81;103882.81;5024751;28;20087;-55
2023/01/24 09:28:55;;;;;;;26.00;18.98;;;;;;;0.64;100.00;103884.56;5032660;28;20465;-55
2023/01/24 09:31:20;;;;;;;23.85;18.00;;;;;;;0.66;100.00;103888.06;5032110;28;20995;-54
2023/01/24 09:33:46;;;;;;;28.02;19.95;;;;;;;0.65;100.00;103889.81;5029456;28;20105;-54
2023/01/24 09:36:11;;;;;;;25.70;18.88;;;;;;;0.68;100.00;103891.59;5032503;28;20036;-57
2023/01/24 09:38:36;;;;;;;25.70;19.05;;;;;;;0.67;100.00;103892.47;5032894;28;20029;-56
2023/01/24 09:41:07;;;;;;;25.33;17.63;;;;;;;0.69;100.00;103891.59;5019681;28;20026;-59
2023/01/24 09:43:46;;;;;;;23.35;17.17;;;;;;;0.71;100.00;103891.63;5032288;28;20128;-59
2023/01/24 09:46:25;;;;;;;25.25;18.73;;;;;;;0.70;100.00;103885.53;5026095;28;20033;-58
2023/01/24 09:49:09;;;;;;;26.38;18.92;;;;;;;0.74;100.00;103891.69;5030370;28;20026;-57
2023/01/24 09:51:40;;;;;;;27.48;19.58;;;;;;;0.73;100.00;103895.13;5029629;28;20040;-58
2023/01/24 09:54:06;;;;;;;26.75;19.10;;;;;;;0.76;100.00;103895.19;5029963;28;20029;-59
2023/01/24 09:56:38;;;;;;;25.13;18.33;;;;;;;0.77;100.00;103901.28;5030797;28;20026;-57
2023/01/24 09:59:16;;;;;;;27.23;19.17;;;;;;;0.79;100.00;103904.84;5031684;28;20029;-55
2023/01/24 10:01:41;;;;;;;25.48;17.90;;;;;;;0.80;100.00;103901.34;5024625;28;20476;-58
2023/01/24 10:04:15;;;;;;;27.00;18.85;;;;;;;0.82;100.00;103902.25;5030348;28;20077;-58
2023/01/24 10:07:02;;;;;;;26.27;18.30;;;;;;;0.80;100.00;103907.47;5024722;28;20036;-59
2023/01/24 10:09:57;;;;;;;24.40;17.00;;;;;;;0.84;100.00;103908.38;5030446;28;20043;-59
2023/01/24 10:12:34;;;;;;;25.85;18.08;;;;;;;0.84;99.99;103909.25;5017262;28;20037;-57
2023/01/24 10:15:29;;;;;;;25.00;17.85;;;;;;;0.84;99.67;103913.63;5017753;28;20380;-58
2023/01/24 10:18:19;;;;;;;24.80;16.60;;;;;;;0.85;99.55;103905.78;5028229;28;20525;-58
2023/01/24 10:21:02;;;;;;;23.52;16.48;;;;;;;0.86;99.73;103904.91;5031687;28;20064;-58
2023/01/24 10:23:35;;;;;;;23.42;16.60;;;;;;;0.84;99.65;103905.78;5029694;28;20051;-58
2023/01/24 10:26:11;;;;;;;22.88;16.35;;;;;;;0.84;98.69;103911.00;5027858;28;20025;-59
2023/01/24 10:28:40;;;;;;;21.25;16.70;;;;;;;0.84;99.11;103911.00;5030490;28;20076;-59
2023/01/24 10:31:27;;;;;;;23.10;16.42;;;;;;;0.86;98.65;103909.28;5014468;28;20033;-60
2023/01/24 10:33:58;;;;;;;21.27;15.90;;;;;;;0.85;99.22;103913.66;5015764;28;20029;-59
2023/01/24 10:36:47;;;;;;;22.55;16.08;;;;;;;0.87;98.90;103906.69;5014386;28;20079;-59
2023/01/24 10:39:13;;;;;;;22.33;15.77;;;;;;;0.86;97.95;103902.28;5031815;28;20088;-60
2023/01/24 10:41:38;;;;;;;21.25;15.32;;;;;;;0.86;98.90;103907.53;5028458;28;20491;-58
2023/01/24 10:44:26;;;;;;;22.75;15.35;;;;;;;0.88;97.61;103911.06;5031411;28;20128;-60
2023/01/24 10:47:13;;;;;;;21.10;15.35;;;;;;;0.88;97.81;103904.94;5023647;28;20483;-58
2023/01/24 10:49:43;;;;;;;21.55;15.40;;;;;;;0.86;97.59;103901.44;5025571;28;20092;-59
2023/01/24 10:52:17;;;;;;;21.60;15.18;;;;;;;0.87;97.79;103904.06;5027949;28;20083;-60
2023/01/24 10:54:58;;;;;;;20.38;15.10;;;;;;;0.87;97.54;103900.59;5030201;28;20029;-58
2023/01/24 10:57:41;;;;;;;20.58;15.15;;;;;;;0.89;97.05;103896.25;5023876;28;20112;-60
2023/01/24 11:00:27;;;;;;;22.33;16.15;;;;;;;0.89;97.81;103904.97;5028093;28;20083;-60
2023/01/24 11:02:56;;;;;;;21.67;14.88;;;;;;;0.90;97.52;103901.50;5019936;28;20120;-59
2023/01/24 11:05:23;;;;;;;20.40;14.73;;;;;;;0.91;97.33;103891.91;5030453;28;20053;-60
2023/01/24 11:07:55;;;;;;;21.13;15.25;;;;;;;0.90;97.82;103898.88;5030988;28;20025;-61
2023/01/24 11:10:22;;;;;;;19.83;14.15;;;;;;;0.93;98.04;103895.41;5026634;28;20104;-60
2023/01/24 11:12:50;;;;;;;19.98;14.95;;;;;;;0.94;98.00;103891.94;5025101;28;20021;-60
2023/01/24 11:15:24;;;;;;;20.40;14.65;;;;;;;0.95;97.16;103893.72;5028187;28;20021;-60
2023/01/24 11:18:16;;;;;;;21.08;14.55;;;;;;;0.96;97.32;103886.72;5027032;28;20041;-59
2023/01/24 11:20:43;;;;;;;22.02;15.43;;;;;;;0.95;96.58;103883.25;5031078;28;20038;-60
2023/01/24 11:23:15;;;;;;;20.17;14.85;;;;;;;0.94;97.00;103878.00;5017145;28;20475;-60
2023/01/24 11:25:56;;;;;;;20.70;14.55;;;;;;;0.96;97.16;103877.13;5030889;28;20033;-60
2023/01/24 11:28:26;;;;;;;21.88;15.38;;;;;;;0.97;96.89;103878.03;5020635;28;20025;-59
2023/01/24 11:30:52;;;;;;;22.02;14.85;;;;;;;0.95;96.17;103872.78;5026330;28;20022;-60
2023/01/24 11:33:50;;;;;;;18.40;13.82;;;;;;;0.97;96.00;103875.41;5029573;28;20026;-59
2023/01/24 11:36:29;;;;;;;22.63;14.10;;;;;;;0.97;95.91;103871.06;5030290;28;20472;-60
2023/01/24 11:39:00;;;;;;;22.23;15.15;;;;;;;0.97;96.66;103865.81;5030175;28;20033;-60
2023/01/24 11:41:32;;;;;;;18.60;13.73;;;;;;;0.97;96.24;103868.44;5022324;28;20024;-60
2023/01/24 11:44:25;;;;;;;18.23;13.45;;;;;;;0.99;95.53;103871.94;5029945;28;20057;-60
2023/01/24 11:47:00;;;;;;;18.55;13.65;;;;;;;0.98;96.03;103871.91;5023029;28;20037;-60
2023/01/24 11:49:36;;;;;;;19.67;14.32;;;;;;;0.99;95.72;103852.75;5027739;28;20033;-60
2023/01/24 11:52:19;;;;;;;19.92;14.13;;;;;;;1.00;95.53;103863.25;5026233;28;20159;-59
2023/01/24 11:55:07;;;;;;;19.88;14.40;;;;;;;1.00;95.43;103862.34;5009433;28;20029;-61
2023/01/24 11:57:33;;;;;;;21.20;15.15;;;;;;;1.00;96.07;103859.72;5031021;28;20021;-60
2023/01/24 12:00:16;;;;;;;20.00;14.27;;;;;;;1.02;95.79;103858.03;5021307;28;20033;-59
2023/01/24 12:02:51;;;;;;;20.30;15.20;;;;;;;1.04;95.97;103854.56;5028775;28;20025;-60